Latest Weather Observations for Cape Jaffa

IDS60801

Issued at 9:02 pm CST Sunday 26 April 2015 (issued every 30 minutes, with the page automatically refreshed every 10 minutes)

About weather observations | Map of weather stations | Latest weather observations for SA | Other Formats
Station Details ID: 026095 Name: THE LIMESTONE Lat: -36.97 Lon: 139.72 Height: 17.0 m
Data from the previous 72 hours. | See also: Recent months at Cape Jaffa
Date/Time
CST
Temp
°C
App
Temp
°C
Dew
Point
Rel
Hum
%
Delta-T
°C
Wind Press
QNH
hPa
Press
MSL
hPa
Rain
since 9 am
mm
Dir
 
Spd
km/h
Gust
km/h
Spd
kts
Gust
kts
26/09:00pm 13.6 9.5 6.2 61 3.5 SW 17 24 9 13 1025.1 1025.1 0.0
26/08:30pm 13.4 9.2 5.6 59 3.6 SW 17 20 9 11 1025.1 1025.1 0.0
26/08:00pm 13.4 8.9 6.3 62 3.4 SW 19 26 10 14 1025.0 1025.0 0.0
26/07:30pm 13.0 7.9 7.5 69 2.7 SW 24 32 13 17 1025.0 1025.0 0.0
26/07:00pm 13.6 8.9 6.2 61 3.5 SW 20 26 11 14 1024.6 1024.6 0.0
26/06:30pm 13.7 8.2 6.1 60 3.6 SW 24 35 13 19 1024.5 1024.5 0.0
26/06:00pm 13.7 8.5 5.6 58 3.8 SW 22 30 12 16 1024.4 1024.4 0.0
26/05:30pm 13.6 8.7 5.0 56 4.0 SW 20 28 11 15 1024.1 1024.1 0.0
26/05:00pm 13.8 9.3 5.9 59 3.7 SW 19 24 10 13 1023.9 1023.9 0.0
26/04:30pm 13.9 8.8 6.0 59 3.7 SSW 22 32 12 17 1023.8 1023.8 0.0
26/04:00pm 14.3 9.7 6.4 59 3.8 SSW 20 32 11 17 1023.6 1023.6 0.0
26/03:30pm 14.0 9.0 8.0 67 3.0 SW 24 33 13 18 1023.6 1023.6 0.0
26/03:00pm 14.5 9.5 6.6 59 3.8 SW 22 30 12 16 1023.4 1023.4 0.0
26/02:30pm 14.8 9.8 6.6 58 4.0 SW 22 32 12 17 1023.4 1023.4 0.0
26/02:00pm 14.6 9.1 5.9 56 4.2 SW 24 33 13 18 1023.3 1023.3 0.0
26/01:30pm 14.9 9.5 6.5 57 4.1 SW 24 35 13 19 1023.2 1023.2 0.0
26/01:00pm 14.1 8.3 8.1 67 3.0 SSW 28 35 15 19 1023.2 1023.2 0.0
26/12:30pm 14.5 9.4 7.8 64 3.3 SSW 24 30 13 16 1023.4 1023.4 0.0
26/12:00pm 14.6 8.6 6.9 60 3.7 SW 28 39 15 21 1023.5 1023.5 0.0
26/11:30am 14.2 8.5 6.8 61 3.6 SW 26 37 14 20 1023.7 1023.7 0.0
26/11:00am 13.7 8.6 7.7 67 3.0 SW 24 30 13 16 1023.7 1023.7 0.0
26/10:30am 13.9 7.3 6.0 59 3.7 SW 30 39 16 21 1023.7 1023.7 0.0
26/10:00am 13.4 6.6 7.0 65 3.1 SSW 32 43 17 23 1023.7 1023.7 0.0
26/09:30am 13.4 7.5 7.6 68 2.8 SW 28 41 15 22 1023.5 1023.5 0.0
26/09:00am 13.6 7.3 7.6 67 2.9 SSW 30 37 16 20 1023.2 1023.2 2.0
26/08:30am 13.7 7.2 6.3 61 3.5 SW 30 37 16 20 1022.9 1022.9 2.0
26/08:00am 13.4 6.7 7.4 67 2.9 SW 32 39 17 21 1022.7 1022.7 2.0
26/07:30am 12.9 7.0 9.0 77 2.0 SSW 30 37 16 20 1022.4 1022.4 2.0
26/07:00am 11.8 6.6 9.0 83 1.4 SW 26 37 14 20 1022.1 1022.1 2.0
26/06:30am 12.3 6.8 9.3 82 1.5 SSW 28 33 15 18 1021.7 1021.7 2.0
26/06:00am 11.7 6.2 9.3 85 1.2 SSW 28 48 15 26 1021.2 1021.2 2.0
26/05:30am 11.9 7.2 7.6 75 2.1 SSW 22 32 12 17 1021.3 1021.3 2.0
26/05:00am 12.2 6.7 7.7 74 2.2 SW 26 43 14 23 1021.2 1021.2 2.0
26/04:30am 12.5 7.6 8.4 76 2.0 SSW 24 32 13 17 1020.9 1020.9 2.0
26/04:00am 12.2 7.0 8.7 79 1.7 SSW 26 33 14 18 1020.6 1020.6 2.0
26/03:30am 11.9 8.6 9.6 86 1.2 SSW 17 24 9 13 1020.5 1020.5 1.8
26/03:00am 11.7 7.8 8.7 82 1.5 S 19 26 10 14 1020.4 1020.4 1.8
26/02:30am 10.8 8.4 8.7 87 1.0 SSE 11 15 6 8 1020.5 1020.5 1.8
26/02:00am 11.5 7.6 9.4 87 1.1 S 20 28 11 15 1020.4 1020.4 1.8
26/01:30am 11.4 7.9 8.8 84 1.3 S 17 24 9 13 1020.4 1020.4 1.4
26/01:00am 11.5 6.8 9.4 87 1.1 S 24 41 13 22 1020.1 1020.1 1.4
26/12:30am 11.9 7.5 8.9 82 1.5 SSW 22 30 12 16 1020.1 1020.1 1.4
26/12:00am 11.5 5.9 8.9 84 1.3 SSW 28 39 15 21 1020.1 1020.1 1.4
 
Date/Time
CST
Temp
°C
App
Temp
°C
Dew
Point
Rel
Hum
%
Delta-T
°C
Wind Press
QNH
hPa
Press
MSL
hPa
Rain
since 9 am
mm
Dir
 
Spd
km/h
Gust
km/h
Spd
kts
Gust
kts
25/11:30pm 11.1 7.1 9.0 87 1.0 SSW 20 33 11 18 1019.9 1019.9 1.4
25/11:00pm 10.9 7.3 8.5 85 1.2 S 17 22 9 12 1020.0 1020.0 1.0
25/10:30pm 11.7 7.1 8.0 78 1.8 S 22 28 12 15 1020.0 1020.0 1.0
25/10:00pm 12.8 8.0 7.5 70 2.6 SSW 22 28 12 15 1019.8 1019.8 1.0
25/09:30pm 12.9 7.1 7.8 71 2.5 S 28 37 15 20 1019.5 1019.5 1.0
25/09:00pm 12.9 8.6 7.8 71 2.5 SSW 20 26 11 14 1019.3 1019.3 1.0
25/08:30pm 12.4 8.4 8.9 79 1.7 S 20 33 11 18 1019.1 1019.1 1.0
25/08:00pm 12.8 7.4 8.1 73 2.3 SSW 26 35 14 19 1018.7 1018.7 1.0
25/07:30pm 12.5 7.0 9.1 80 1.7 S 28 35 15 19 1018.4 1018.4 1.0
25/07:00pm 12.3 6.4 9.1 81 1.6 S 30 37 16 20 1018.0 1018.0 1.0
25/06:30pm 12.6 5.7 8.7 77 1.9 S 35 44 19 24 1017.5 1017.5 1.0
25/06:00pm 13.0 6.3 9.8 81 1.6 S 35 46 19 25 1016.9 1016.9 1.0
25/05:30pm 12.8 6.2 10.0 83 1.4 S 35 43 19 23 1016.6 1016.6 1.0
25/05:00pm 13.3 5.9 9.9 80 1.7 S 39 50 21 27 1015.8 1015.8 1.0
25/04:30pm 13.3 5.4 10.7 84 1.4 S 43 52 23 28 1015.3 1015.2 1.0
25/04:00pm 13.3 5.8 11.0 86 1.2 S 41 50 22 27 1015.0 1014.9 1.0
25/03:30pm 13.2 5.1 10.9 86 1.2 S 44 54 24 29 1014.5 1014.4 0.8
25/03:00pm 14.0 6.6 11.2 83 1.5 S 41 54 22 29 1014.1 1014.0 0.8
25/02:30pm 14.4 6.4 11.2 81 1.7 S 44 59 24 32 1013.5 1013.4 0.8
25/02:00pm 15.1 7.6 12.1 82 1.6 S 43 54 23 29 1013.2 1013.1 0.8
25/01:30pm 15.1 7.7 12.6 85 1.4 S 43 54 23 29 1012.8 1012.7 0.8
25/01:00pm 14.8 6.7 12.1 84 1.5 S 46 61 25 33 1012.3 1012.2 0.8
25/12:30pm 14.6 7.2 12.3 86 1.3 S 43 54 23 29 1012.3 1012.2 0.8
25/12:00pm 14.6 7.5 12.3 86 1.3 S 41 54 22 29 1012.0 1011.9 0.8
25/11:30am 13.0 6.0 11.4 90 0.8 S 39 61 21 33 1011.7 1011.6 0.6
25/11:27am 14.1 8.7 12.1 88 1.1 S 32 54 17 29 1011.8 1011.7 0.2
25/11:26am 14.3 9.3 12.3 88 1.1 S 30 46 16 25 1011.9 1011.8 0.0
25/11:00am 13.4 9.7 11.5 88 1.0 S 22 28 12 15 1012.1 1012.0 0.0
25/10:30am 14.2 11.6 11.9 86 1.2 SSW 17 26 9 14 1011.6 1011.5 0.0
25/10:00am 13.8 10.5 11.0 83 1.5 SW 19 22 10 12 1011.3 1011.2 0.0
25/09:30am 14.4 11.9 11.0 80 1.8 SW 15 24 8 13 1010.9 1010.8 0.0
25/09:00am 14.1 10.8 9.5 74 2.4 SSW 17 24 9 13 1010.7 1010.6 2.6
25/08:30am 14.1 10.4 9.3 73 2.5 SW 19 26 10 14 1010.6 1010.5 2.6
25/08:00am 13.8 10.1 9.6 76 2.2 SSW 19 26 10 14 1010.5 1010.4 2.6
25/07:30am 12.7 7.8 8.6 76 2.0 SSW 24 30 13 16 1010.1 1010.0 2.6
25/07:00am 9.9 8.3 8.0 88 0.9 S 6 7 3 4 1009.8 1009.7 2.6
25/06:30am 9.3 7.5 7.3 87 0.9 S 6 9 3 5 1009.4 1009.3 2.6
25/06:00am 8.5 5.7 6.8 89 0.8 SSW 11 15 6 8 1009.3 1009.2 2.4
25/05:30am 7.9 4.9 5.9 87 0.9 S 11 11 6 6 1008.7 1008.6 2.4
25/05:00am 7.9 5.6 5.9 87 0.9 S 7 9 4 5 1008.5 1008.4 2.4
25/04:30am 7.5 5.3 5.3 86 1.0 SE 6 9 3 5 1008.1 1008.0 2.4
25/04:00am 7.6 5.4 5.1 84 1.1 SE 6 9 3 5 1007.8 1007.7 2.4
25/03:30am 9.0 6.9 5.7 80 1.5 S 6 9 3 5 1007.5 1007.4 2.4
25/03:00am 9.6 7.7 6.7 82 1.4 E 6 7 3 4 1007.3 1007.2 2.4
25/02:30am 8.7 6.1 6.2 84 1.2 SE 9 9 5 5 1007.0 1006.9 2.4
25/02:00am 7.8 5.2 6.1 89 0.8 SE 9 9 5 5 1006.8 1006.7 2.4
25/01:30am 7.2 4.4 5.3 88 0.8 ENE 9 13 5 7 1006.6 1006.5 2.4
25/01:00am 7.3 4.2 5.4 88 0.8 E 11 15 6 8 1006.5 1006.4 2.4
25/12:30am 7.6 4.9 5.7 88 0.9 ESE 9 11 5 6 1006.1 1006.0 2.4
25/12:00am 8.0 5.0 6.1 88 0.9 E 11 13 6 7 1006.0 1005.9 2.4
 
Date/Time
CST
Temp
°C
App
Temp
°C
Dew
Point
Rel
Hum
%
Delta-T
°C
Wind Press
QNH
hPa
Press
MSL
hPa
Rain
since 9 am
mm
Dir
 
Spd
km/h
Gust
km/h
Spd
kts
Gust
kts
24/11:30pm 8.1 4.7 6.1 87 0.9 E 13 13 7 7 1005.7 1005.6 2.4
24/11:00pm 8.8 5.9 6.4 85 1.1 ESE 11 13 6 7 1005.8 1005.7 2.4
24/10:30pm 9.2 6.3 6.5 83 1.3 ESE 11 15 6 8 1005.8 1005.7 2.4
24/10:00pm 10.4 7.2 6.9 79 1.7 E 13 17 7 9 1005.6 1005.5 2.4
24/09:30pm 10.3 6.8 7.4 82 1.4 E 15 17 8 9 1005.6 1005.5 2.4
24/09:00pm 10.4 8.4 6.9 79 1.7 ENE 7 13 4 7 1005.4 1005.3 2.4
24/08:30pm 10.6 8.5 6.7 77 1.8 E 7 9 4 5 1005.4 1005.3 2.4
24/08:00pm 12.1 10.1 7.0 71 2.4 WNW 7 9 4 5 1005.5 1005.4 2.4
24/07:30pm 12.2 9.8 6.9 70 2.5 NW 9 15 5 8 1005.4 1005.3 2.4
24/07:00pm 12.4 9.8 6.0 65 3.0 NW 9 13 5 7 1005.5 1005.4 2.4
24/06:30pm 13.0 9.3 6.1 63 3.3 WNW 15 20 8 11 1005.4 1005.3 2.4
24/06:00pm 13.0 9.8 6.8 66 3.0 WNW 13 20 7 11 1005.0 1004.9 2.4
24/05:30pm 13.0 8.6 6.6 65 3.1 WNW 19 24 10 13 1004.7 1004.6 2.4
24/05:00pm 13.7 9.6 7.9 68 2.9 W 19 24 10 13 1004.5 1004.4 2.4
24/04:30pm 13.0 8.6 7.2 68 2.8 WNW 20 33 11 18 1004.4 1004.3 2.4
24/04:00pm 13.8 8.2 7.3 65 3.2 WNW 26 39 14 21 1004.2 1004.2 2.4
24/03:30pm 14.2 10.2 8.4 68 2.9 WNW 19 24 10 13 1004.0 1004.0 2.4
24/03:00pm 13.9 10.2 9.5 75 2.3 NW 19 30 10 16 1003.9 1003.9 2.4
24/02:30pm 12.9 10.0 9.7 81 1.6 WNW 15 20 8 11 1004.0 1004.0 2.4
24/02:00pm 12.7 9.8 9.7 82 1.5 WNW 15 19 8 10 1004.1 1004.1 2.4
24/01:30pm 11.9 7.5 8.9 82 1.5 W 22 30 12 16 1004.2 1004.2 2.2
24/01:00pm 12.3 6.6 8.4 77 1.9 WNW 28 41 15 22 1004.0 1004.0 1.8
24/12:30pm 12.9 6.5 9.5 80 1.7 W 33 44 18 24 1004.2 1004.2 1.8
24/12:00pm 12.3 5.3 10.0 86 1.2 W 37 46 20 25 1004.4 1004.3 1.8
24/11:30am 12.8 4.7 10.7 87 1.1 W 44 57 24 31 1004.1 1004.1 1.6
24/11:09am 12.9 5.3 10.4 85 1.3 NNW 41 82 22 44 1004.0 1004.0 1.0
24/11:08am 13.5 6.4 11.0 85 1.3 N 39 82 21 44 1003.4 1003.4 0.8
24/11:07am 14.6 8.7 12.5 87 1.1 N 35 82 19 44 1003.3 1003.3 0.6
24/11:00am 14.6 9.2 12.3 86 1.3 N 32 43 17 23 1003.7 1003.7 0.4
24/10:30am 16.3 12.1 12.5 78 2.1 N 26 33 14 18 1004.2 1004.2 0.0
24/10:00am 16.6 12.7 12.2 75 2.4 N 24 30 13 16 1004.4 1004.3 0.0
24/09:30am 17.4 14.2 13.1 76 2.4 NNW 22 32 12 17 1004.9 1004.8 0.0
24/09:00am 16.6 13.2 12.6 77 2.2 NNW 22 26 12 14 1005.4 1005.3 0.0
24/08:30am 16.1 13.1 12.7 80 1.9 NNW 20 22 11 12 1005.6 1005.5 0.0
24/08:00am 14.6 12.9 12.3 86 1.3 NNW 13 15 7 8 1005.5 1005.4 0.0
24/07:30am 14.5 13.0 11.8 84 1.5 NW 11 15 6 8 1005.7 1005.6 0.0
24/07:00am 14.4 12.7 12.4 88 1.1 NNW 13 20 7 11 1005.9 1005.8 0.0
24/06:30am 13.8 12.7 12.0 89 1.0 N 9 11 5 6 1006.0 1005.9 0.0
24/06:00am 14.0 12.9 12.0 88 1.1 NNW 9 11 5 6 1006.2 1006.1 0.0
24/05:30am 14.0 13.5 11.9 87 1.1 NW 6 7 3 4 1006.3 1006.2 0.0
24/05:00am 14.2 13.1 12.1 87 1.1 NW 9 11 5 6 1006.6 1006.5 0.0
24/04:30am 13.7 12.6 11.8 88 1.0 NW 9 13 5 7 1006.9 1006.8 0.0
24/04:00am 13.6 13.0 11.7 88 1.0 NW 6 9 3 5 1007.0 1006.9 0.0
24/03:30am 13.8 13.0 11.7 87 1.1 WNW 7 9 4 5 1007.4 1007.3 0.0
24/03:00am 13.7 12.2 11.9 89 1.0 WNW 11 13 6 7 1007.7 1007.6 0.0
24/02:30am 13.4 12.6 11.8 90 0.9 WNW 7 9 4 5 1008.1 1008.0 0.0
24/02:00am 13.7 13.0 12.1 90 0.9 W 7 9 4 5 1008.6 1008.5 0.0
24/01:30am 13.8 12.8 12.2 90 0.9 W 9 9 5 5 1008.9 1008.8 0.0
24/01:00am 13.6 13.1 12.0 90 0.9 W 6 7 3 4 1009.2 1009.1 0.0
24/12:30am 13.5 12.8 11.9 90 0.9 WSW 7 9 4 5 1009.5 1009.4 0.0
24/12:00am 13.7 13.2 12.1 90 0.9 WSW 6 7 3 4 1010.0 1009.9 0.0
 
Date/Time
CST
Temp
°C
App
Temp
°C
Dew
Point
Rel
Hum
%
Delta-T
°C
Wind Press
QNH
hPa
Press
MSL
hPa
Rain
since 9 am
mm
Dir
 
Spd
km/h
Gust
km/h
Spd
kts
Gust
kts
23/11:30pm 13.6 12.2 12.2 91 0.8 W 11 15 6 8 1010.5 1010.4 0.0
23/11:00pm 13.7 11.6 12.3 91 0.8 W 15 19 8 10 1010.9 1010.8 0.0
23/10:30pm 13.9 12.2 12.3 90 0.9 W 13 17 7 9 1011.5 1011.4 0.0
23/10:00pm 14.2 11.7 12.2 88 1.1 W 17 20 9 11 1011.8 1011.7 0.0
23/09:30pm 14.8 13.6 12.8 88 1.1 SW 11 13 6 7 1012.0 1011.9 0.0

Other Formats:

Comma delimited format used in spreadsheet applications
http://www.bom.gov.au/fwo/IDS60801/IDS60801.94813.axf

JavaScript Object Notation format (JSON) in row-major order
http://www.bom.gov.au/fwo/IDS60801/IDS60801.94813.json